• Join FlightAware (Why Join?)
  • Login
  • US Flag 
05:08AM EDT


 

Airport Tracker/Info


-or-


 

Live Flight TrackerFlight Track Log ✈ AWE1913 ✈ 12-May-2013 ✈ KPHL - MYNN / NAS

Flight Track Log - Related Links

Times and Time Zones

All times are in EDT time to prevent confusion due to time zone crossing. See the AWE1913 flight status page for this flight to view local times or setup timezone preferences in your user account.

Time Position Orientation Groundspeed Altitude Reporting Facility
EDT Latitude Longitude Course Direction KTS MPH feet Rate Location/Type
10:28AM 39.8667 -75.2667 180° South 154 177 800  Level Philadelphia TRACON
10:28AM 39.8333 -75.3000 218° Southwest 175 201 1,900 1,800 Climbing Philadelphia TRACON
10:29AM 39.8000 -75.3333 218° Southwest 217 250 3,700 2,400 Climbing Philadelphia TRACON
10:31AM 39.4345 -75.3333 180° South  Level FlightAware Approximate
10:32AM 39.3226 -75.3456 185° South  Level FlightAware Approximate
10:32AM 39.6236 -75.3058 173° South 256 295 10,400  Level Washington Center
10:33AM 39.2129 -75.3667 180° South  Level FlightAware Approximate
10:33AM 39.5403 -75.3197 187° South 273 314 11,800  Level Washington Center
10:34AM 39.4550 -75.3389 190° South 298 343 12,000 1,320 Climbing Washington Center
10:35AM 39.3694 -75.3525 187° South 313 360 14,500 2,400 Climbing Washington Center
10:36AM 39.2861 -75.3664 187° South 313 360 16,900 1,740 Climbing Washington Center
10:37AM 39.2028 -75.3800 187° South 313 360 18,100 1,920 Climbing Washington Center
10:38AM 39.1175 -75.3964 188° South 313 360 20,800 2,280 Climbing Washington Center
10:39AM 39.0342 -75.4072 186° South 313 360 22,700 1,920 Climbing Washington Center
10:40AM 38.9506 -75.4236 189° South 313 360 24,800 1,800 Climbing Washington Center
10:41AM 38.8653 -75.4344 186° South 313 360 26,300 1,860 Climbing Washington Center
10:42AM 38.7839 -75.4478 187° South 313 360 28,500 1,680 Climbing Washington Center
10:43AM 38.7006 -75.4586 186° South 313 360 29,700 720 Climbing Washington Center
10:44AM 38.6131 -75.4722 187° South 313 360 30,000 120 Climbing Washington Center
10:45AM 38.5172 -75.4856 186° South 333 383 30,000  Level Washington Center
10:46AM 38.4192 -75.5017 187° South 348 400 30,000  Level Washington Center
10:47AM 38.3233 -75.5256 191° South 355 409 30,000  Level Washington Center
10:48AM 38.2439 -75.5547 196° South 362 417 30,000  Level Washington Center
10:49AM 38.1272 -75.5733 187° South 357 411 30,000  Level Washington Center
10:50AM 38.0272 -75.5892 187° South 357 411 30,000 -60 Level Washington Center
10:51AM 37.9292 -75.6050 187° South 357 411 29,900  Descending Washington Center
10:52AM 37.8436 -75.6392 198° South 338 389 30,000  Climbing Washington Center
10:53AM 37.7603 -75.6864 204° Southwest 331 381 30,000  Level Washington Center
10:54AM 37.6808 -75.7361 206° Southwest 326 375 30,000  Level Washington Center
10:55AM 37.5975 -75.7806 203° Southwest 326 375 30,000 420 Level Washington Center
10:56AM 37.5117 -75.8275 203° Southwest 326 375 30,900 840 Climbing Washington Center
10:57AM 37.4283 -75.8717 203° Southwest 331 381 31,800 1,140 Climbing Washington Center
10:58AM 37.3447 -75.9158 203° Southwest 336 387 33,200 1,020 Climbing Washington Center
10:59AM 37.2592 -75.9625 203° Southwest 336 387 33,900 360 Climbing Washington Center
11:00AM 37.1714 -75.9986 198° South 336 387 34,000  Climbing Washington Center
11:01AM 37.0814 -76.0319 196° South 336 387 34,000  Level Washington Center
11:02AM 36.9853 -76.0703 198° South 348 400 34,000  Level Washington Center
11:03AM 36.8914 -76.0983 193° South 371 427 34,000  Level Washington Center
11:04AM 36.7953 -76.1367 198° South 371 427 34,000  Level Washington Center
11:05AM 36.6969 -76.1747 197° South 371 427 34,000  Level Washington Center
11:06AM 36.5989 -76.2103 196° South 371 427 34,000  Level Washington Center
11:07AM 36.5028 -76.2456 196° South 371 427 34,000  Level Washington Center
11:08AM 36.4044 -76.2811 196° South 371 427 34,000  Level Washington Center
11:09AM 36.3042 -76.3189 197° South 371 427 34,000  Level Washington Center
11:10AM 36.2036 -76.3564 197° South 371 427 34,000  Level Washington Center
11:11AM 36.1033 -76.3914 196° South 377 434 34,000  Level Washington Center
11:12AM 36.0050 -76.4264 196° South 377 434 34,000  Level Washington Center
11:13AM 35.9044 -76.4639 197° South 377 434 34,000  Level Washington Center
11:14AM 35.8042 -76.5011 197° South 377 434 34,000  Level Washington Center
11:15AM 35.7036 -76.5411 198° South 377 434 34,000  Level Washington Center
11:16AM 35.6011 -76.5756 195° South 382 440 34,000  Level Washington Center
11:17AM 35.4986 -76.6075 194° South 382 440 34,000  Level Washington Center
11:18AM 35.3961 -76.6494 198° South 382 440 34,000  Level Washington Center
11:19AM 35.2933 -76.6889 197° South 382 440 34,000  Level Washington Center
11:20AM 35.1908 -76.7231 195° South 382 440 34,000  Level Washington Center
11:21AM 35.0883 -76.7647 198° South 388 447 34,000  Level Washington Center
11:22AM 34.9836 -76.8014 196° South 388 447 34,000  Level Washington Center
11:23AM 34.8789 -76.8403 197° South 388 447 34,000  Level Washington Center
11:24AM 34.7742 -76.8767 196° South 394 453 34,000  Level Washington Center
11:25AM 34.6714 -76.9128 196° South 394 453 34,000  Level Washington Center
11:26AM 34.5647 -76.9489 196° South 394 453 34,000  Level Washington Center
11:27AM 34.4619 -76.9850 196° South 394 453 34,000  Level Washington Center
11:28AM 34.3572 -77.0236 197° South 399 459 34,000  Level Washington Center
11:29AM 34.2567 -77.0569 195° South 399 459 34,000  Level Washington Center
11:30AM 34.1542 -77.0953 197° South 399 459 34,000  Level Washington Center
11:31AM 34.0494 -77.1283 195° South 399 459 34,000  Level Washington Center
11:32AM 33.9444 -77.1667 197° South 399 459 34,000  Level Washington Center
11:33AM 33.8397 -77.2022 196° South 399 459 34,000  Level Washington Center
11:35AM 33.6506 -77.2692 196° South 397 457 34,000  Level Jacksonville Center
11:36AM 33.5456 -77.3033 195° South 397 457 34,000  Level Jacksonville Center
11:37AM 33.4389 -77.3400 196° South 397 457 34,000  Level Jacksonville Center
11:38AM 33.3319 -77.3789 197° South 397 457 34,000  Level Jacksonville Center
11:39AM 33.2269 -77.4128 195° South 397 457 34,000  Level Jacksonville Center
11:40AM 33.1200 -77.4489 196° South 397 457 34,000  Level Jacksonville Center
11:41AM 33.0111 -77.4853 196° South 402 463 34,000  Level Jacksonville Center
11:42AM 32.9042 -77.5214 196° South 402 463 34,000  Level Jacksonville Center
11:43AM 32.7953 -77.5625 198° South 402 463 34,000  Level Jacksonville Center
11:44AM 32.6883 -77.5986 196° South 402 463 34,000  Level Jacksonville Center
11:45AM 32.5811 -77.6319 195° South 402 463 34,000  Level Jacksonville Center
11:46AM 32.4658 -77.6731 197° South 402 463 34,000  Level Jacksonville Center
11:47AM 32.3569 -77.7089 196° South 402 463 34,000  Level Jacksonville Center
11:48AM 32.2497 -77.7467 197° South 402 463 34,000  Level Jacksonville Center
11:49AM 32.1425 -77.7750 193° South 402 463 34,000  Level Jacksonville Center
11:50AM 32.0356 -77.8128 197° South 407 468 34,000  Level Jacksonville Center
11:51AM 31.9222 -77.8508 196° South 412 474 34,000  Level Jacksonville Center
11:52AM 31.8153 -77.8908 198° South 412 474 34,000  Level Jacksonville Center
11:53AM 31.7061 -77.9261 195° South 412 474 34,000  Level Jacksonville Center
11:54AM 31.5944 -77.9589 194° South 412 474 34,000  Level Jacksonville Center
11:55AM 31.4856 -77.9986 197° South 412 474 34,000  Level Jacksonville Center
11:56AM 31.3742 -78.0336 195° South 412 474 34,000  Level Jacksonville Center
11:57AM 31.2625 -78.0661 194° South 412 474 34,000  Level Jacksonville Center
11:58AM 31.1511 -78.0986 194° South 417 480 34,000  Level Jacksonville Center
11:59AM 31.0381 -78.1431 199° South 417 480 34,000  Level Jacksonville Center
12:00PM 30.9269 -78.1875 199° South 417 480 34,000  Level Jacksonville Center
12:01PM 30.8072 -78.2225 194° South 424 488 34,000  Level Jacksonville Center
12:02PM 30.6297 -78.2825 196° South 420 483 34,000  Level Miami Center
12:03PM 30.5189 -78.3194 196° South 422 486 34,000  Level Miami Center
12:04PM 30.3914 -78.3536 193° South 422 486 34,000  Level Miami Center
12:05PM 30.2661 -78.3639 184° South 435 501 34,000  Level Miami Center
12:06PM 30.1389 -78.3742 184° South 447 514 34,000  Level Miami Center
12:07PM 30.0200 -78.3917 187° South 452 520 34,000  Level Miami Center
12:08PM 29.9008 -78.4044 185° South 446 513 34,000  Level Miami Center
12:09PM 29.7756 -78.4144 184° South 446 513 34,000  Level Miami Center
12:10PM 29.6483 -78.4222 183° South 446 513 34,000  Level Miami Center
12:11PM 29.5294 -78.4253 181° South 445 512 34,000  Level Miami Center
12:12PM 29.3983 -78.3878 166° South 456 525 34,000  Level Miami Center
12:13PM 29.2761 -78.3169 153° Southeast 469 540 34,000  Level Miami Center
12:14PM 29.1600 -78.2369 149° Southeast 469 540 34,000  Level Miami Center
12:15PM 29.0419 -78.1594 150° Southeast 481 554 34,000  Level Miami Center
12:16PM 28.9258 -78.0822 150° Southeast 487 560 34,000  Level Miami Center
12:17PM 28.8033 -78.0028 150° Southeast 493 567 34,000  Level Miami Center
12:18PM 28.6850 -77.9258 150° Southeast 493 567 34,000  Level Miami Center
12:19PM 28.5622 -77.8514 152° Southeast 498 573 34,000  Level Miami Center
12:20PM 28.4331 -77.8242 170° South 479 551 34,000  Level Miami Center
12:21PM 28.3036 -77.8089 174° South 471 542 34,000  Level Miami Center
12:22PM 28.1703 -77.7914 173° South 471 542 34,000  Level Miami Center
12:23PM 28.0431 -77.7764 174° South 471 542 34,000  Level Miami Center
12:24PM 27.9094 -77.7611 174° South 478 550 34,000  Level Miami Center
12:25PM 27.7781 -77.7458 174° South 478 550 34,000  Level Miami Center
12:26PM 27.6464 -77.7308 174° South 485 558 34,000  Level Miami Center
12:27PM 27.5339 -77.7158 173° South 472 543 34,000 -420 Level Miami Center
12:28PM 27.4022 -77.7033 175° South 472 543 33,200 -900 Descending Miami Center
12:29PM 27.2708 -77.6906 175° South 472 543 32,200 -900 Descending Miami Center
12:30PM 27.1436 -77.6664 170° South 472 543 31,500 -660 Descending Miami Center
12:31PM 27.0100 -77.6444 172° South 472 543 30,900 -600 Descending Miami Center
12:32PM 26.8803 -77.6436 180° South 472 543 30,400 -540 Descending Miami Center
12:33PM 26.7553 -77.6125 167° South 472 543 29,900 -540 Descending Miami Center
12:34PM 26.6258 -77.6047 177° South 472 543 29,400 -600 Descending Miami Center
12:35PM 26.5006 -77.5856 172° South 466 536 28,800 -540 Descending Miami Center
12:36PM 26.3772 -77.5683 173° South 461 531 28,400 -1,260 Descending Miami Center
12:37PM 26.2519 -77.5583 176° South 461 531 26,300 -2,520 Descending Miami Center
12:38PM 26.1267 -77.5392 172° South 461 531 23,400 -2,940 Descending Miami Center
12:39PM 26.0056 -77.5292 176° South 456 525 20,500 -2,820 Descending Miami Center
12:40PM 25.8803 -77.5125 173° South 439 505 17,800 -2,760 Descending Miami Center
12:41PM 25.7694 -77.4956 172° South 419 482 15,000 -2,400 Descending Miami Center
12:42PM 25.6672 -77.4858 175° South 394 453 13,000 -1,080 Descending Miami Center
12:43PM 25.5775 -77.4808 177° South 357 411 12,900 -120 Descending Miami Center